Time;durP1;ratioP1;P1;durP2;ratioP2;P2;SDS_P1;SDS_P2;PMS_P1;PMS_P2;Temp;Humidity;BMP_temperature;BMP_pressure;BME280_temperature;BME280_humidity;BME280_pressure;Samples;Min_cycle;Max_cycle;Signal;HPM_P1;HPM_P2
2021/09/17 00:00:17;;;;;;;2.40;0.63;;;14.10;99.90;;;;;;5032916;28;20104;-50
2021/09/17 00:02:42;;;;;;;2.25;0.50;;;14.10;99.90;;;;;;5050946;28;20032;-49
2021/09/17 00:05:09;;;;;;;3.33;0.60;;;14.10;99.90;;;;;;5042650;28;20076;-48
2021/09/17 00:07:35;;;;;;;2.70;0.90;;;14.00;99.90;;;;;;5029849;28;20017;-50
2021/09/17 00:10:00;;;;;;;2.13;0.30;;;14.00;99.90;;;;;;5037713;28;20472;-51
2021/09/17 00:12:26;;;;;;;0.52;0.20;;;14.10;99.90;;;;;;5043206;28;20040;-49
2021/09/17 00:14:52;;;;;;;2.92;0.77;;;14.00;99.90;;;;;;5032224;28;20479;-47
2021/09/17 00:17:21;;;;;;;4.60;0.50;;;14.00;99.90;;;;;;5032523;28;20119;-51
2021/09/17 00:19:46;;;;;;;0.68;0.30;;;14.00;99.90;;;;;;5050468;28;20029;-51
2021/09/17 00:22:12;;;;;;;1.02;0.40;;;14.00;99.90;;;;;;5050568;28;20068;-49
2021/09/17 00:24:37;;;;;;;2.80;0.32;;;14.00;99.90;;;;;;5049835;28;20020;-50
2021/09/17 00:27:03;;;;;;;1.77;0.60;;;14.00;99.90;;;;;;5050524;28;20040;-47
2021/09/17 00:29:29;;;;;;;3.58;0.68;;;14.00;99.90;;;;;;5050300;28;20431;-52
2021/09/17 00:31:54;;;;;;;1.38;0.57;;;14.00;99.90;;;;;;5050405;28;20102;-50
2021/09/17 00:34:20;;;;;;;0.88;0.35;;;14.00;99.90;;;;;;5050206;28;20067;-50
2021/09/17 00:36:46;;;;;;;0.77;0.40;;;14.00;99.90;;;;;;5050296;28;20479;-48
2021/09/17 00:39:29;;;;;;;2.58;0.50;;;14.00;99.90;;;;;;5020600;28;20026;-48
2021/09/17 00:41:57;;;;;;;1.40;0.60;;;14.00;99.90;;;;;;5025724;28;20617;-47
2021/09/17 00:44:24;;;;;;;3.63;0.47;;;14.00;99.90;;;;;;5029942;28;20021;-49
2021/09/17 00:46:51;;;;;;;2.35;0.80;;;14.00;99.90;;;;;;5030084;28;20029;-48
2021/09/17 00:49:17;;;;;;;3.50;0.50;;;14.00;99.90;;;;;;5029689;28;20035;-47
2021/09/17 00:51:44;;;;;;;1.58;0.50;;;14.00;99.90;;;;;;5029495;28;20029;-51
2021/09/17 00:54:09;;;;;;;0.75;0.28;;;14.00;99.90;;;;;;5029674;28;20644;-48
2021/09/17 00:56:36;;;;;;;3.80;0.80;;;14.10;99.90;;;;;;5028582;28;20030;-50
2021/09/17 00:59:02;;;;;;;1.35;0.45;;;14.10;99.90;;;;;;5026846;28;20030;-49
2021/09/17 01:01:27;;;;;;;2.58;0.40;;;14.10;99.90;;;;;;5027765;28;20079;-49
2021/09/17 01:03:53;;;;;;;2.58;0.47;;;14.00;99.90;;;;;;5028202;28;20034;-51
2021/09/17 01:06:18;;;;;;;2.35;0.50;;;14.00;99.90;;;;;;5030008;28;20032;-52
2021/09/17 01:08:44;;;;;;;2.88;0.60;;;14.00;99.90;;;;;;5028499;28;20028;-52
2021/09/17 01:11:13;;;;;;;7.35;0.80;;;14.00;99.90;;;;;;5028200;28;20113;-52
2021/09/17 01:13:39;;;;;;;3.75;0.57;;;14.00;99.90;;;;;;5029976;28;20057;-53
2021/09/17 01:16:05;;;;;;;2.40;0.50;;;14.00;99.90;;;;;;5029285;28;20026;-48
2021/09/17 01:18:31;;;;;;;0.68;0.50;;;14.00;99.90;;;;;;5029756;28;20029;-48
2021/09/17 01:21:00;;;;;;;2.65;0.47;;;14.00;99.90;;;;;;5029559;28;20026;-53
2021/09/17 01:23:26;;;;;;;1.63;0.50;;;14.00;99.90;;;;;;5029664;28;20021;-55
2021/09/17 01:25:52;;;;;;;0.52;0.52;;;14.00;99.90;;;;;;5029583;28;20523;-51
2021/09/17 01:28:26;;;;;;;1.67;0.35;;;14.00;99.90;;;;;;5029682;28;20025;-52
2021/09/17 01:30:52;;;;;;;3.03;0.32;;;14.00;99.90;;;;;;5029636;28;20025;-50
2021/09/17 01:33:18;;;;;;;1.60;0.60;;;14.00;99.90;;;;;;5029914;28;20452;-49
2021/09/17 01:35:44;;;;;;;0.20;0.13;;;13.90;99.90;;;;;;5030054;28;20037;-52
2021/09/17 01:38:10;;;;;;;2.20;0.40;;;13.90;99.90;;;;;;5028463;28;20033;-53
2021/09/17 01:40:36;;;;;;;1.85;0.40;;;13.90;99.90;;;;;;5029130;28;20056;-50
2021/09/17 01:43:02;;;;;;;3.70;0.47;;;13.90;99.90;;;;;;5029524;28;20034;-52
2021/09/17 01:45:28;;;;;;;1.48;0.40;;;13.90;99.90;;;;;;5029563;28;20025;-51
2021/09/17 01:47:53;;;;;;;1.00;0.30;;;14.00;99.90;;;;;;5029495;28;20407;-49
2021/09/17 01:50:19;;;;;;;1.27;0.35;;;14.00;99.90;;;;;;5029181;28;20029;-50
2021/09/17 01:52:45;;;;;;;1.58;0.60;;;14.00;99.90;;;;;;5029553;28;20492;-52
2021/09/17 01:55:11;;;;;;;2.95;0.98;;;13.90;99.90;;;;;;5029328;28;20029;-50
2021/09/17 01:57:36;;;;;;;3.72;0.45;;;13.90;99.90;;;;;;5029404;28;20029;-50
2021/09/17 02:00:06;;;;;;;0.88;0.80;;;13.90;99.90;;;;;;5029366;28;20021;-49
2021/09/17 02:02:32;;;;;;;2.92;1.13;;;13.90;99.90;;;;;;5029507;28;20100;-50
2021/09/17 02:04:58;;;;;;;1.17;0.40;;;13.90;99.90;;;;;;5031278;28;20026;-52
2021/09/17 02:07:23;;;;;;;1.77;0.30;;;14.00;99.90;;;;;;5033259;28;20064;-52
2021/09/17 02:09:49;;;;;;;1.23;0.32;;;13.90;99.90;;;;;;5033098;28;20029;-54
2021/09/17 02:12:15;;;;;;;1.70;0.47;;;13.90;99.90;;;;;;5033118;28;20029;-48
2021/09/17 02:14:41;;;;;;;0.70;0.35;;;13.90;99.90;;;;;;5032697;28;20108;-52
2021/09/17 02:17:07;;;;;;;1.85;0.38;;;13.90;99.90;;;;;;5032716;28;20025;-52
2021/09/17 02:19:33;;;;;;;3.30;0.30;;;13.90;99.90;;;;;;5032818;28;20072;-52
2021/09/17 02:21:58;;;;;;;1.00;0.25;;;13.80;99.90;;;;;;5032989;28;20081;-52
2021/09/17 02:24:24;;;;;;;2.17;0.63;;;13.90;99.90;;;;;;5032569;28;20025;-51
2021/09/17 02:26:50;;;;;;;1.75;0.50;;;13.90;99.90;;;;;;5032709;28;20033;-52
2021/09/17 02:29:15;;;;;;;0.40;0.25;;;13.90;99.90;;;;;;5032423;28;20095;-52
2021/09/17 02:31:42;;;;;;;0.20;0.20;;;13.80;99.90;;;;;;5032652;28;20029;-48
2021/09/17 02:34:07;;;;;;;1.75;0.40;;;13.80;99.90;;;;;;5032552;28;20041;-50
2021/09/17 02:36:33;;;;;;;1.75;0.40;;;13.80;99.90;;;;;;5032612;28;20033;-49
2021/09/17 02:38:59;;;;;;;0.43;0.10;;;13.80;99.90;;;;;;5032763;28;20018;-52
2021/09/17 02:41:24;;;;;;;2.30;0.30;;;13.80;99.90;;;;;;5032256;28;20049;-49
2021/09/17 02:43:50;;;;;;;1.13;0.77;;;13.80;99.90;;;;;;5031291;28;20033;-48
2021/09/17 02:46:15;;;;;;;0.43;0.20;;;13.80;99.90;;;;;;5032154;28;20033;-49
2021/09/17 02:48:44;;;;;;;0.65;0.20;;;13.70;99.90;;;;;;5032286;28;20033;-52
2021/09/17 02:51:11;;;;;;;0.55;0.47;;;13.70;99.90;;;;;;5032115;28;20029;-48
2021/09/17 02:53:36;;;;;;;2.60;0.55;;;13.70;99.90;;;;;;5032419;28;20026;-49
2021/09/17 02:56:02;;;;;;;1.90;0.30;;;13.70;99.90;;;;;;5032122;28;20040;-50
2021/09/17 02:58:27;;;;;;;1.35;0.43;;;13.70;99.90;;;;;;5032175;28;20021;-50
2021/09/17 03:00:53;;;;;;;2.78;1.60;;;13.70;99.90;;;;;;5031889;28;20025;-48
2021/09/17 03:03:19;;;;;;;0.93;0.45;;;13.70;99.90;;;;;;5032161;28;20022;-50
2021/09/17 03:05:45;;;;;;;1.67;0.57;;;13.70;99.90;;;;;;5031995;28;20048;-50
2021/09/17 03:08:12;;;;;;;1.55;0.30;;;13.70;99.90;;;;;;5032070;28;20459;-50
2021/09/17 03:10:38;;;;;;;2.15;0.32;;;13.60;99.90;;;;;;5031803;28;20045;-47
2021/09/17 03:13:04;;;;;;;2.63;0.45;;;13.60;99.90;;;;;;5032368;28;20444;-50
2021/09/17 03:15:29;;;;;;;1.90;0.35;;;13.60;99.90;;;;;;5031064;28;20072;-48
2021/09/17 03:17:55;;;;;;;1.00;0.30;;;13.60;99.90;;;;;;5031779;28;20036;-51
2021/09/17 03:20:20;;;;;;;0.90;0.10;;;13.60;99.90;;;;;;5031360;28;20033;-51
2021/09/17 03:22:47;;;;;;;2.65;0.63;;;13.60;99.90;;;;;;5031808;28;20048;-48
2021/09/17 03:25:12;;;;;;;0.70;0.30;;;13.60;99.90;;;;;;5031283;28;20030;-51
2021/09/17 03:27:38;;;;;;;1.33;0.15;;;13.60;99.90;;;;;;5031785;28;20022;-47
2021/09/17 03:30:05;;;;;;;0.75;0.30;;;13.60;99.90;;;;;;5029885;28;20029;-48
2021/09/17 03:32:30;;;;;;;0.75;0.40;;;13.50;99.90;;;;;;5031473;28;20051;-49
2021/09/17 03:34:56;;;;;;;0.47;0.20;;;13.50;99.90;;;;;;5031309;28;20026;-48
2021/09/17 03:37:22;;;;;;;0.57;0.40;;;13.50;99.90;;;;;;5031291;28;20053;-52
2021/09/17 03:39:47;;;;;;;0.05;0.00;;;13.50;99.90;;;;;;5030761;28;20409;-49
2021/09/17 03:42:13;;;;;;;1.52;0.17;;;13.50;99.90;;;;;;5031433;28;20014;-49
2021/09/17 03:44:38;;;;;;;1.17;0.25;;;13.40;99.90;;;;;;5031212;28;20029;-50
2021/09/17 03:47:04;;;;;;;0.68;0.20;;;13.40;99.90;;;;;;5030668;28;20319;-48
2021/09/17 03:49:29;;;;;;;1.02;0.20;;;13.40;99.90;;;;;;5028786;28;20450;-50
2021/09/17 03:51:56;;;;;;;0.00;0.00;;;13.40;99.90;;;;;;5029212;28;20394;-49
2021/09/17 03:54:25;;;;;;;2.28;1.73;;;13.30;99.90;;;;;;5030488;28;20068;-49
2021/09/17 03:56:51;;;;;;;0.47;0.20;;;13.30;99.90;;;;;;5030700;28;20033;-51
2021/09/17 03:59:16;;;;;;;1.17;0.45;;;13.30;99.90;;;;;;5030827;28;20026;-48
2021/09/17 04:01:44;;;;;;;0.10;0.10;;;13.40;99.90;;;;;;5031093;28;20036;-49
2021/09/17 04:04:10;;;;;;;0.13;0.05;;;13.30;99.90;;;;;;5030959;28;20610;-48
2021/09/17 04:06:36;;;;;;;1.17;0.10;;;13.30;99.90;;;;;;5030496;28;20029;-49
2021/09/17 04:09:02;;;;;;;1.77;0.35;;;13.30;99.90;;;;;;5029430;28;20368;-48
2021/09/17 04:11:27;;;;;;;0.47;0.20;;;13.30;99.90;;;;;;5030666;28;20025;-49
2021/09/17 04:13:53;;;;;;;0.25;0.25;;;13.30;99.90;;;;;;5031045;28;20030;-49
2021/09/17 04:16:18;;;;;;;0.93;0.10;;;13.30;99.90;;;;;;5030418;28;20025;-52
2021/09/17 04:18:44;;;;;;;1.85;0.20;;;13.20;99.90;;;;;;5030766;28;20484;-52
2021/09/17 04:21:09;;;;;;;0.10;0.10;;;13.20;99.90;;;;;;5030537;28;20033;-48
2021/09/17 04:23:35;;;;;;;0.57;0.30;;;13.20;99.90;;;;;;5030586;28;20472;-51
2021/09/17 04:26:00;;;;;;;0.10;0.10;;;13.20;99.90;;;;;;5029821;28;20041;-54
2021/09/17 04:28:26;;;;;;;0.15;0.15;;;13.20;99.90;;;;;;5030461;28;20044;-53
2021/09/17 04:30:51;;;;;;;0.95;0.10;;;13.10;99.90;;;;;;5030193;28;20030;-53
2021/09/17 04:33:17;;;;;;;0.40;0.10;;;13.20;99.90;;;;;;5030310;28;20162;-51
2021/09/17 04:35:43;;;;;;;0.32;0.00;;;13.10;99.90;;;;;;5030257;28;20047;-52
2021/09/17 04:38:12;;;;;;;1.83;0.25;;;13.10;99.90;;;;;;5030328;28;20017;-54
2021/09/17 04:40:38;;;;;;;1.13;0.20;;;13.10;99.90;;;;;;5028116;28;20061;-50
2021/09/17 04:43:03;;;;;;;0.30;0.10;;;13.10;99.90;;;;;;5030123;28;20087;-51
2021/09/17 04:45:29;;;;;;;0.15;0.10;;;13.10;99.90;;;;;;5030015;28;20100;-48
2021/09/17 04:47:54;;;;;;;0.22;0.08;;;13.10;99.90;;;;;;5030139;28;20174;-50
2021/09/17 04:50:20;;;;;;;0.13;0.13;;;13.10;99.90;;;;;;5030352;28;20479;-49
2021/09/17 04:52:47;;;;;;;0.65;0.20;;;13.10;99.90;;;;;;5030668;28;20034;-48
2021/09/17 04:55:13;;;;;;;0.20;0.20;;;13.00;99.90;;;;;;5030012;28;20021;-51
2021/09/17 04:57:39;;;;;;;0.95;0.50;;;13.00;99.90;;;;;;5030015;28;20053;-51
2021/09/17 05:00:06;;;;;;;0.30;0.17;;;13.00;99.90;;;;;;5029452;28;20028;-50
2021/09/17 05:02:32;;;;;;;1.35;0.32;;;13.00;99.90;;;;;;5029853;28;20100;-50
2021/09/17 05:04:58;;;;;;;0.45;0.22;;;13.00;99.90;;;;;;5029771;28;20025;-50
2021/09/17 05:07:23;;;;;;;1.30;0.30;;;13.00;99.90;;;;;;5029772;28;20040;-50
2021/09/17 05:09:49;;;;;;;0.82;0.30;;;13.00;99.90;;;;;;5028062;28;20022;-48
2021/09/17 05:12:14;;;;;;;1.33;0.30;;;13.00;99.90;;;;;;5028533;28;20033;-48
2021/09/17 05:14:40;;;;;;;2.05;0.55;;;13.00;99.90;;;;;;5029631;28;20105;-48
2021/09/17 05:17:05;;;;;;;1.10;0.28;;;13.00;99.90;;;;;;5029688;28;20116;-51
2021/09/17 05:19:31;;;;;;;0.65;0.30;;;13.00;99.90;;;;;;5029492;28;20032;-46
2021/09/17 05:21:58;;;;;;;0.10;0.10;;;13.00;99.90;;;;;;5029928;28;20345;-48
2021/09/17 05:24:23;;;;;;;1.17;0.30;;;12.90;99.90;;;;;;5029036;28;20534;-48
2021/09/17 05:26:50;;;;;;;0.10;0.10;;;12.90;99.90;;;;;;5029099;28;20061;-49
2021/09/17 05:29:16;;;;;;;0.52;0.35;;;12.90;99.90;;;;;;5028654;28;20491;-47
2021/09/17 05:31:42;;;;;;;1.08;0.43;;;12.90;99.90;;;;;;5028799;28;20037;-53
2021/09/17 05:34:08;;;;;;;0.20;0.20;;;13.00;99.90;;;;;;5028781;28;20079;-51
2021/09/17 05:36:34;;;;;;;0.30;0.28;;;12.90;99.90;;;;;;5028581;28;20040;-48
2021/09/17 05:38:59;;;;;;;1.00;0.30;;;12.90;99.90;;;;;;5029873;28;20080;-48
2021/09/17 05:41:25;;;;;;;0.95;0.13;;;12.90;99.90;;;;;;5031626;28;20037;-48
2021/09/17 05:43:51;;;;;;;0.50;0.20;;;13.00;99.90;;;;;;5031956;28;20033;-48
2021/09/17 05:46:17;;;;;;;0.10;0.10;;;13.00;99.90;;;;;;5032108;28;20025;-50
2021/09/17 05:48:43;;;;;;;0.30;0.30;;;13.00;99.90;;;;;;5032021;28;20044;-48
2021/09/17 05:51:09;;;;;;;1.13;0.10;;;13.00;99.90;;;;;;5032013;28;20026;-49
2021/09/17 05:53:34;;;;;;;0.70;0.20;;;12.90;99.90;;;;;;5032138;28;20029;-49
2021/09/17 05:56:00;;;;;;;1.35;0.20;;;12.90;99.90;;;;;;5032254;28;20471;-51
2021/09/17 05:58:30;;;;;;;0.28;0.28;;;12.90;99.90;;;;;;5032281;28;20057;-47
2021/09/17 06:00:56;;;;;;;0.45;0.40;;;12.90;99.90;;;;;;5031874;28;20030;-48
2021/09/17 06:03:22;;;;;;;0.98;0.60;;;13.00;99.90;;;;;;5031935;28;20021;-47
2021/09/17 06:05:48;;;;;;;0.22;0.10;;;13.00;99.90;;;;;;5031937;28;20043;-51
2021/09/17 06:08:13;;;;;;;1.08;0.38;;;12.90;99.90;;;;;;5031787;28;20052;-48
2021/09/17 06:10:39;;;;;;;0.70;0.22;;;13.00;99.90;;;;;;5031569;28;20109;-47
2021/09/17 06:13:04;;;;;;;0.17;0.10;;;13.00;99.90;;;;;;5031939;28;20029;-48
2021/09/17 06:15:30;;;;;;;0.35;0.10;;;12.90;99.90;;;;;;5031397;28;20552;-49
2021/09/17 06:17:55;;;;;;;0.75;0.52;;;12.90;99.90;;;;;;5029987;28;20483;-51
2021/09/17 06:20:21;;;;;;;0.45;0.38;;;12.90;99.90;;;;;;5031490;28;20078;-48
2021/09/17 06:22:47;;;;;;;0.75;0.20;;;12.90;99.90;;;;;;5031687;28;20093;-49
2021/09/17 06:25:15;;;;;;;0.05;0.05;;;12.80;99.90;;;;;;4993359;28;1057728;-48
2021/09/17 06:27:42;;;;;;;1.63;0.30;;;12.80;99.90;;;;;;5033038;28;20260;-47
2021/09/17 06:30:08;;;;;;;0.00;0.00;;;12.80;99.90;;;;;;5032751;28;20151;-47
2021/09/17 06:32:33;;;;;;;0.65;0.10;;;12.80;99.90;;;;;;5032994;28;20498;-48
2021/09/17 06:34:59;;;;;;;1.40;0.40;;;12.70;99.90;;;;;;5032302;28;20096;-46
2021/09/17 06:37:25;;;;;;;1.17;0.20;;;12.70;99.90;;;;;;5032354;28;20503;-50
2021/09/17 06:39:50;;;;;;;0.47;0.22;;;12.70;99.90;;;;;;5031684;28;20116;-51
2021/09/17 06:42:16;;;;;;;0.10;0.10;;;12.70;99.90;;;;;;5032594;28;20124;-47
2021/09/17 06:44:41;;;;;;;0.13;0.10;;;12.70;99.90;;;;;;5032312;28;20022;-50
2021/09/17 06:47:07;;;;;;;0.60;0.55;;;12.70;99.90;;;;;;5032583;28;20029;-49
2021/09/17 06:49:32;;;;;;;0.20;0.20;;;12.70;99.90;;;;;;5031635;28;20036;-48
2021/09/17 06:51:58;;;;;;;0.08;0.08;;;12.60;99.90;;;;;;5031447;28;20060;-49
2021/09/17 06:54:24;;;;;;;0.57;0.28;;;12.60;99.90;;;;;;5032331;28;20057;-51
2021/09/17 06:56:49;;;;;;;0.32;0.20;;;12.60;99.90;;;;;;5032070;28;20026;-48
2021/09/17 06:59:15;;;;;;;0.10;0.10;;;12.70;99.90;;;;;;5031989;28;20038;-50
2021/09/17 07:01:40;;;;;;;0.68;0.20;;;12.70;99.90;;;;;;5031044;28;20075;-49
2021/09/17 07:04:06;;;;;;;0.20;0.10;;;12.70;99.90;;;;;;5032525;28;20033;-50
2021/09/17 07:06:36;;;;;;;0.50;0.30;;;12.70;99.90;;;;;;5031832;28;20120;-49
2021/09/17 07:09:03;;;;;;;0.15;0.15;;;12.70;99.90;;;;;;5031781;28;20018;-53
2021/09/17 07:11:29;;;;;;;0.10;0.10;;;12.80;99.90;;;;;;5032019;28;20041;-49
2021/09/17 07:13:54;;;;;;;0.10;0.10;;;12.80;99.90;;;;;;5031748;28;20029;-47
2021/09/17 07:16:20;;;;;;;0.10;0.00;;;12.80;99.90;;;;;;5030414;28;20021;-49
2021/09/17 07:18:46;;;;;;;0.10;0.10;;;12.90;99.90;;;;;;5031962;28;20034;-49
2021/09/17 07:21:11;;;;;;;5.50;0.30;;;13.00;99.90;;;;;;5031411;28;20053;-52
2021/09/17 07:23:37;;;;;;;0.10;0.10;;;13.10;99.90;;;;;;5031627;28;20025;-49
2021/09/17 07:26:02;;;;;;;0.35;0.20;;;13.10;99.90;;;;;;5029972;28;20034;-48
2021/09/17 07:28:32;;;;;;;1.08;0.10;;;13.30;99.90;;;;;;5031730;28;20037;-47
2021/09/17 07:30:58;;;;;;;0.88;0.15;;;13.40;99.90;;;;;;5031251;28;20037;-52
2021/09/17 07:33:24;;;;;;;0.13;0.13;;;13.50;99.90;;;;;;5031725;28;20029;-51
2021/09/17 07:35:49;;;;;;;0.85;0.13;;;13.60;99.90;;;;;;5031647;28;20040;-48
2021/09/17 07:38:15;;;;;;;0.10;0.10;;;13.70;99.90;;;;;;5031738;28;20030;-50
2021/09/17 07:40:41;;;;;;;0.43;0.10;;;13.70;99.90;;;;;;5030657;28;20040;-50
2021/09/17 07:43:06;;;;;;;0.10;0.10;;;13.70;99.90;;;;;;5031405;28;20057;-51
2021/09/17 07:45:32;;;;;;;0.75;0.10;;;13.80;99.90;;;;;;5029951;28;20032;-50
2021/09/17 07:48:00;;;;;;;0.10;0.10;;;13.90;99.90;;;;;;5029886;28;20029;-52
2021/09/17 07:50:25;;;;;;;2.83;0.30;;;14.00;99.90;;;;;;5030956;28;20025;-49
2021/09/17 07:52:51;;;;;;;0.10;0.10;;;14.10;99.90;;;;;;5031258;28;20040;-49
2021/09/17 07:55:17;;;;;;;0.03;0.03;;;14.30;99.90;;;;;;5031090;28;20105;-52
2021/09/17 07:57:43;;;;;;;0.13;0.10;;;14.50;99.90;;;;;;5030971;28;20509;-50
2021/09/17 08:00:12;;;;;;;0.13;0.13;;;14.40;99.90;;;;;;5030679;28;20105;-54
2021/09/17 08:02:41;;;;;;;1.02;0.35;;;14.50;99.90;;;;;;5030756;28;20472;-48
2021/09/17 08:05:07;;;;;;;0.35;0.10;;;14.60;99.90;;;;;;5030803;28;20029;-49
2021/09/17 08:07:33;;;;;;;0.30;0.20;;;14.80;99.90;;;;;;5029726;28;20030;-52
2021/09/17 08:09:58;;;;;;;0.77;0.10;;;15.10;99.90;;;;;;5030823;28;20041;-49
2021/09/17 08:12:24;;;;;;;0.28;0.20;;;15.20;99.90;;;;;;5031247;28;20030;-50
2021/09/17 08:14:50;;;;;;;1.10;0.77;;;15.30;99.90;;;;;;5030363;28;20053;-50
2021/09/17 08:17:15;;;;;;;1.40;0.25;;;15.30;99.90;;;;;;5030805;28;20029;-51
2021/09/17 08:19:41;;;;;;;0.15;0.10;;;15.30;99.90;;;;;;5030419;28;20026;-48
2021/09/17 08:22:06;;;;;;;0.10;0.10;;;15.40;99.90;;;;;;5030709;28;20021;-52
2021/09/17 08:24:32;;;;;;;0.52;0.22;;;15.50;99.90;;;;;;5030115;28;20029;-49
2021/09/17 08:27:00;;;;;;;0.08;0.08;;;15.70;99.90;;;;;;5030544;28;20495;-49
2021/09/17 08:29:26;;;;;;;1.45;0.15;;;15.80;99.90;;;;;;5030109;28;20503;-53
2021/09/17 08:31:54;;;;;;;0.47;0.40;;;15.90;99.90;;;;;;5030459;28;20064;-53
2021/09/17 08:34:20;;;;;;;0.40;0.17;;;15.90;99.90;;;;;;5030360;28;20033;-52
2021/09/17 08:36:45;;;;;;;0.00;0.00;;;15.70;99.90;;;;;;5030263;28;20029;-50
2021/09/17 08:39:11;;;;;;;0.05;0.05;;;15.60;99.90;;;;;;5028914;28;20686;-48
2021/09/17 08:41:37;;;;;;;0.20;0.20;;;15.70;99.90;;;;;;5029973;28;20025;-48
2021/09/17 08:44:03;;;;;;;0.20;0.20;;;15.80;99.90;;;;;;5030639;28;20543;-49
2021/09/17 08:46:30;;;;;;;5.55;0.20;;;15.70;99.90;;;;;;5028882;28;20120;-50
2021/09/17 08:48:57;;;;;;;0.85;0.13;;;15.80;99.90;;;;;;5030171;28;20022;-51
2021/09/17 08:51:23;;;;;;;0.80;0.25;;;15.80;99.90;;;;;;5030100;28;20049;-51
2021/09/17 08:53:49;;;;;;;0.30;0.10;;;15.90;99.90;;;;;;5030274;28;20032;-49
2021/09/17 08:56:16;;;;;;;0.10;0.10;;;15.80;99.90;;;;;;5030069;28;20101;-48
2021/09/17 08:58:46;;;;;;;0.17;0.10;;;15.80;99.90;;;;;;5028813;28;20036;-53
2021/09/17 09:01:36;;;;;;;0.20;0.00;;;15.70;99.90;;;;;;5029914;28;20071;-48
2021/09/17 09:04:04;;;;;;;0.35;0.15;;;15.50;99.90;;;;;;5030050;28;20021;-50
2021/09/17 09:06:37;;;;;;;0.68;0.17;;;15.50;99.90;;;;;;5030014;28;20136;-50
2021/09/17 09:09:08;;;;;;;0.00;0.00;;;15.40;99.90;;;;;;5029535;28;20446;-51
2021/09/17 09:11:34;;;;;;;0.10;0.10;;;15.40;99.90;;;;;;5029971;28;20038;-50
2021/09/17 09:14:02;;;;;;;0.10;0.08;;;15.30;99.90;;;;;;5029231;28;20151;-52
2021/09/17 09:16:29;;;;;;;0.32;0.20;;;15.50;99.90;;;;;;5030076;28;20026;-48
2021/09/17 09:18:54;;;;;;;0.63;0.20;;;15.50;99.90;;;;;;5029879;28;20028;-48
2021/09/17 09:21:26;;;;;;;0.00;0.00;;;15.70;99.90;;;;;;5028321;28;20025;-52
2021/09/17 09:24:11;;;;;;;1.00;0.17;;;15.70;99.90;;;;;;5028122;28;20063;-51
2021/09/17 09:26:37;;;;;;;0.10;0.10;;;15.80;99.90;;;;;;5029602;28;20040;-53
2021/09/17 09:29:03;;;;;;;0.00;0.00;;;15.90;99.90;;;;;;5029644;28;20037;-50
2021/09/17 09:31:40;;;;;;;0.03;0.00;;;15.70;99.90;;;;;;5029886;28;20396;-50
2021/09/17 09:34:06;;;;;;;1.88;0.15;;;15.20;99.90;;;;;;5029707;28;20098;-52
2021/09/17 09:36:35;;;;;;;0.20;0.10;;;15.20;99.90;;;;;;5029439;28;20029;-48
2021/09/17 09:39:02;;;;;;;0.22;0.17;;;15.20;99.90;;;;;;5029722;28;20021;-53
2021/09/17 09:41:30;;;;;;;0.90;0.52;;;15.10;99.90;;;;;;5028218;28;20025;-53
2021/09/17 09:44:16;;;;;;;0.55;0.00;;;15.10;99.90;;;;;;5029668;28;20047;-50
2021/09/17 09:46:46;;;;;;;0.00;0.00;;;15.10;99.90;;;;;;5029880;28;20032;-55
2021/09/17 09:49:22;;;;;;;1.45;0.20;;;15.20;99.90;;;;;;5029541;28;20057;-55
2021/09/17 09:51:53;;;;;;;0.10;0.10;;;15.30;99.90;;;;;;5030013;28;20022;-50
2021/09/17 09:54:23;;;;;;;0.13;0.10;;;15.30;99.90;;;;;;5029698;28;20079;-51
2021/09/17 09:56:49;;;;;;;0.00;0.00;;;15.20;99.90;;;;;;5027992;28;20022;-49
2021/09/17 09:59:17;;;;;;;0.20;0.13;;;15.20;99.90;;;;;;5029401;28;20017;-51
2021/09/17 10:01:43;;;;;;;0.10;0.10;;;15.20;99.90;;;;;;5029456;28;20452;-52
2021/09/17 10:04:11;;;;;;;0.08;0.08;;;15.10;99.90;;;;;;5029746;28;20443;-52
2021/09/17 10:06:38;;;;;;;0.32;0.32;;;15.10;99.90;;;;;;5029711;28;20079;-50
2021/09/17 10:09:09;;;;;;;0.10;0.10;;;15.00;99.90;;;;;;5029305;28;20022;-52
2021/09/17 10:11:35;;;;;;;0.10;0.10;;;14.90;99.90;;;;;;5029626;28;20049;-53
2021/09/17 10:14:03;;;;;;;2.17;0.10;;;14.80;99.90;;;;;;5029004;28;20026;-54
2021/09/17 10:16:31;;;;;;;0.10;0.10;;;14.80;99.90;;;;;;5029358;28;20043;-52
2021/09/17 10:18:57;;;;;;;0.63;0.10;;;14.80;99.90;;;;;;5029800;28;20033;-55
2021/09/17 10:21:45;;;;;;;0.10;0.10;;;14.80;99.90;;;;;;5028433;28;20060;-52
2021/09/17 10:24:25;;;;;;;0.00;0.00;;;14.90;99.90;;;;;;5029626;28;20413;-54
2021/09/17 10:26:55;;;;;;;1.23;0.70;;;15.00;99.90;;;;;;5032930;28;20056;-52
2021/09/17 10:29:34;;;;;;;0.35;0.10;;;15.10;99.90;;;;;;5032842;28;20503;-51
2021/09/17 10:32:00;;;;;;;0.00;0.00;;;15.00;99.90;;;;;;5032970;28;20030;-54
2021/09/17 10:34:40;;;;;;;0.10;0.03;;;15.10;99.90;;;;;;5032964;28;20040;-53
2021/09/17 10:37:07;;;;;;;0.10;0.10;;;15.00;99.90;;;;;;5031846;28;20053;-49
2021/09/17 10:39:33;;;;;;;0.38;0.15;;;14.80;99.90;;;;;;5032404;28;20466;-51
2021/09/17 10:42:17;;;;;;;0.38;0.10;;;14.80;99.90;;;;;;5032796;28;20105;-53
2021/09/17 10:45:01;;;;;;;1.40;0.13;;;14.80;99.90;;;;;;5032408;28;20018;-51
2021/09/17 10:47:39;;;;;;;1.10;0.10;;;14.80;99.90;;;;;;5032475;28;20033;-53
2021/09/17 10:50:06;;;;;;;1.30;0.03;;;14.90;99.90;;;;;;5032323;28;20032;-49
2021/09/17 10:52:40;;;;;;;0.00;0.00;;;14.90;99.90;;;;;;5032901;28;20037;-55
2021/09/17 10:55:07;;;;;;;0.10;0.10;;;14.90;99.90;;;;;;5014953;28;20120;-51
2021/09/17 10:57:52;;;;;;;0.22;0.15;;;15.00;99.90;;;;;;5032154;28;20018;-53
2021/09/17 11:00:50;;;;;;;0.00;0.00;;;15.00;99.90;;;;;;5031973;28;20053;-53
2021/09/17 11:03:36;;;;;;;0.20;0.10;;;15.10;99.90;;;;;;5032345;28;20033;-52
2021/09/17 11:06:32;;;;;;;0.82;0.10;;;15.20;99.90;;;;;;5032108;28;20113;-52
2021/09/17 11:09:00;;;;;;;3.45;0.40;;;15.30;99.90;;;;;;5031990;28;20480;-54
2021/09/17 11:11:26;;;;;;;0.20;0.20;;;15.40;99.90;;;;;;5032074;28;20052;-50
2021/09/17 11:13:54;;;;;;;0.10;0.10;;;15.50;99.90;;;;;;5031635;28;20021;-49
2021/09/17 11:16:21;;;;;;;1.17;0.10;;;15.70;99.90;;;;;;5031870;28;20029;-51
2021/09/17 11:19:06;;;;;;;0.57;0.10;;;15.80;99.90;;;;;;5031964;28;20071;-51
2021/09/17 11:21:42;;;;;;;0.20;0.10;;;15.80;99.90;;;;;;5032241;28;20025;-52
2021/09/17 11:24:25;;;;;;;0.85;0.20;;;15.70;99.90;;;;;;5031957;28;20022;-49
2021/09/17 11:26:52;;;;;;;1.40;0.20;;;15.70;99.90;;;;;;5032246;28;20065;-50
2021/09/17 11:29:20;;;;;;;0.32;0.28;;;15.60;99.90;;;;;;5031684;28;20021;-51
2021/09/17 11:31:52;;;;;;;0.60;0.20;;;15.50;99.90;;;;;;5032017;28;20491;-52
2021/09/17 11:34:20;;;;;;;0.05;0.05;;;15.50;99.90;;;;;;5031593;28;20029;-50
2021/09/17 11:36:49;;;;;;;0.75;0.10;;;15.30;99.90;;;;;;5030949;28;20025;-50
2021/09/17 11:39:21;;;;;;;0.52;0.20;;;15.20;99.90;;;;;;5031271;28;20025;-52
2021/09/17 11:41:49;;;;;;;0.50;0.30;;;15.20;99.90;;;;;;5031524;28;20029;-51
2021/09/17 11:44:33;;;;;;;0.30;0.10;;;15.10;99.90;;;;;;5031527;28;20071;-53
2021/09/17 11:46:59;;;;;;;0.15;0.10;;;15.10;99.90;;;;;;5031102;28;20021;-51
2021/09/17 11:49:29;;;;;;;1.50;0.45;;;15.10;99.90;;;;;;5030921;28;20034;-49
2021/09/17 11:51:57;;;;;;;0.17;0.17;;;15.10;99.90;;;;;;5031336;28;20428;-54
2021/09/17 11:54:23;;;;;;;0.32;0.20;;;15.30;99.90;;;;;;5030171;28;20036;-49
2021/09/17 11:57:03;;;;;;;1.00;0.70;;;15.40;99.90;;;;;;5031679;28;20386;-49
2021/09/17 11:59:43;;;;;;;0.93;0.63;;;15.50;99.90;;;;;;5031171;28;20024;-52
2021/09/17 12:02:19;;;;;;;0.20;0.17;;;15.60;99.90;;;;;;5031275;28;20032;-49
2021/09/17 12:04:56;;;;;;;0.40;0.30;;;15.70;99.90;;;;;;5031191;28;20032;-50
2021/09/17 12:07:24;;;;;;;0.43;0.35;;;15.70;99.90;;;;;;5031176;28;20063;-53
2021/09/17 12:09:50;;;;;;;2.45;0.30;;;15.60;99.90;;;;;;5030575;28;20079;-54
2021/09/17 12:12:15;;;;;;;0.85;0.22;;;15.60;99.90;;;;;;5029767;28;20033;-51
2021/09/17 12:14:56;;;;;;;0.10;0.10;;;15.40;99.90;;;;;;5030689;28;20569;-53
2021/09/17 12:17:22;;;;;;;0.43;0.30;;;15.30;99.90;;;;;;5029660;28;20029;-56
2021/09/17 12:20:01;;;;;;;0.20;0.20;;;15.30;99.90;;;;;;5030951;28;20380;-52
2021/09/17 12:22:36;;;;;;;0.10;0.10;;;15.20;99.90;;;;;;5030764;28;20064;-55
2021/09/17 12:25:12;;;;;;;1.65;0.22;;;15.10;99.90;;;;;;5030400;28;20408;-53
2021/09/17 12:27:43;;;;;;;0.70;0.40;;;15.00;99.90;;;;;;5031176;28;20511;-52
2021/09/17 12:30:13;;;;;;;0.50;0.10;;;15.00;99.90;;;;;;5030726;28;20112;-56
2021/09/17 12:32:40;;;;;;;0.43;0.10;;;15.00;99.90;;;;;;5030907;28;20030;-49
2021/09/17 12:35:07;;;;;;;0.73;0.10;;;15.10;99.90;;;;;;5030834;28;20022;-54
2021/09/17 12:37:33;;;;;;;0.93;0.22;;;15.10;99.90;;;;;;5029353;28;20095;-53
2021/09/17 12:40:10;;;;;;;1.17;0.10;;;15.20;99.90;;;;;;5029606;28;20021;-54
2021/09/17 12:42:36;;;;;;;2.60;0.40;;;15.20;99.90;;;;;;5030581;28;20080;-53
2021/09/17 12:45:02;;;;;;;0.55;0.20;;;15.20;99.90;;;;;;5030334;28;20021;-53
2021/09/17 12:47:28;;;;;;;0.20;0.20;;;15.20;99.90;;;;;;5028660;28;20131;-51
2021/09/17 12:50:09;;;;;;;0.08;0.08;;;15.30;99.90;;;;;;5029343;28;20032;-51